sensor_id;sensor_type;location;lat;lon;timestamp;temperature;humidity
14053;DHT22;7101;51.600;7.310;2024-01-30T00:01:06;5.80;99.90
14053;DHT22;7101;51.600;7.310;2024-01-30T00:03:33;5.80;99.90
14053;DHT22;7101;51.600;7.310;2024-01-30T00:06:03;5.70;99.90
14053;DHT22;7101;51.600;7.310;2024-01-30T00:08:29;5.70;99.90
14053;DHT22;7101;51.600;7.310;2024-01-30T00:10:56;5.80;99.90
14053;DHT22;7101;51.600;7.310;2024-01-30T00:13:23;5.70;99.90
14053;DHT22;7101;51.600;7.310;2024-01-30T00:15:50;5.70;99.90
14053;DHT22;7101;51.600;7.310;2024-01-30T00:18:17;5.60;99.90
14053;DHT22;7101;51.600;7.310;2024-01-30T00:20:44;5.60;99.90
14053;DHT22;7101;51.600;7.310;2024-01-30T00:23:12;5.50;99.90
14053;DHT22;7101;51.600;7.310;2024-01-30T00:25:39;5.30;99.90
14053;DHT22;7101;51.600;7.310;2024-01-30T00:28:06;5.30;99.90
14053;DHT22;7101;51.600;7.310;2024-01-30T00:30:33;5.30;99.90
14053;DHT22;7101;51.600;7.310;2024-01-30T00:33:00;5.40;99.90
14053;DHT22;7101;51.600;7.310;2024-01-30T00:35:27;5.30;99.90
14053;DHT22;7101;51.600;7.310;2024-01-30T00:37:55;5.20;99.90
14053;DHT22;7101;51.600;7.310;2024-01-30T00:40:23;5.10;99.90
14053;DHT22;7101;51.600;7.310;2024-01-30T00:42:49;5.10;99.90
14053;DHT22;7101;51.600;7.310;2024-01-30T00:45:16;5.10;99.90
14053;DHT22;7101;51.600;7.310;2024-01-30T00:47:43;5.10;99.90
14053;DHT22;7101;51.600;7.310;2024-01-30T00:50:11;5.00;99.90
14053;DHT22;7101;51.600;7.310;2024-01-30T00:52:38;4.90;99.90
14053;DHT22;7101;51.600;7.310;2024-01-30T00:55:07;4.80;99.90
14053;DHT22;7101;51.600;7.310;2024-01-30T00:57:35;4.90;99.90
14053;DHT22;7101;51.600;7.310;2024-01-30T01:00:02;4.90;99.90
14053;DHT22;7101;51.600;7.310;2024-01-30T01:02:31;4.90;99.90
14053;DHT22;7101;51.600;7.310;2024-01-30T01:04:58;4.80;99.90
14053;DHT22;7101;51.600;7.310;2024-01-30T01:07:25;4.80;99.90
14053;DHT22;7101;51.600;7.310;2024-01-30T01:09:52;4.90;99.90
14053;DHT22;7101;51.600;7.310;2024-01-30T01:12:19;4.90;99.90
14053;DHT22;7101;51.600;7.310;2024-01-30T01:14:47;4.90;99.90
14053;DHT22;7101;51.600;7.310;2024-01-30T01:17:14;4.80;99.90
14053;DHT22;7101;51.600;7.310;2024-01-30T01:19:40;4.80;99.90
14053;DHT22;7101;51.600;7.310;2024-01-30T01:22:07;4.90;99.90
14053;DHT22;7101;51.600;7.310;2024-01-30T01:24:35;4.90;99.90
14053;DHT22;7101;51.600;7.310;2024-01-30T01:27:02;4.90;99.90
14053;DHT22;7101;51.600;7.310;2024-01-30T01:29:29;4.80;99.90
14053;DHT22;7101;51.600;7.310;2024-01-30T01:31:57;4.80;99.90
14053;DHT22;7101;51.600;7.310;2024-01-30T01:34:24;4.70;99.90
14053;DHT22;7101;51.600;7.310;2024-01-30T01:36:51;4.80;99.90
14053;DHT22;7101;51.600;7.310;2024-01-30T01:39:21;4.90;99.90
14053;DHT22;7101;51.600;7.310;2024-01-30T01:41:48;4.80;99.90
14053;DHT22;7101;51.600;7.310;2024-01-30T01:44:15;4.80;99.90
14053;DHT22;7101;51.600;7.310;2024-01-30T01:46:42;4.70;99.90
14053;DHT22;7101;51.600;7.310;2024-01-30T01:49:10;4.70;99.90
14053;DHT22;7101;51.600;7.310;2024-01-30T01:51:38;4.70;99.90
14053;DHT22;7101;51.600;7.310;2024-01-30T01:54:07;4.70;99.90
14053;DHT22;7101;51.600;7.310;2024-01-30T01:56:35;4.60;99.90
14053;DHT22;7101;51.600;7.310;2024-01-30T01:59:05;4.60;99.90
14053;DHT22;7101;51.600;7.310;2024-01-30T02:01:33;4.60;99.90
14053;DHT22;7101;51.600;7.310;2024-01-30T02:04:00;4.70;99.90
14053;DHT22;7101;51.600;7.310;2024-01-30T02:06:28;4.70;99.90
14053;DHT22;7101;51.600;7.310;2024-01-30T02:08:55;4.60;99.90
14053;DHT22;7101;51.600;7.310;2024-01-30T02:11:22;4.60;99.90
14053;DHT22;7101;51.600;7.310;2024-01-30T02:13:49;4.60;99.90
14053;DHT22;7101;51.600;7.310;2024-01-30T02:16:16;4.50;99.90
14053;DHT22;7101;51.600;7.310;2024-01-30T02:18:43;4.50;99.90
14053;DHT22;7101;51.600;7.310;2024-01-30T02:21:14;4.60;99.90
14053;DHT22;7101;51.600;7.310;2024-01-30T02:23:42;4.50;99.90
14053;DHT22;7101;51.600;7.310;2024-01-30T02:26:10;4.50;99.90
14053;DHT22;7101;51.600;7.310;2024-01-30T02:28:36;4.40;99.90
14053;DHT22;7101;51.600;7.310;2024-01-30T02:31:03;4.40;99.90
14053;DHT22;7101;51.600;7.310;2024-01-30T02:33:30;4.50;99.90
14053;DHT22;7101;51.600;7.310;2024-01-30T02:35:57;4.50;99.90
14053;DHT22;7101;51.600;7.310;2024-01-30T02:38:26;4.50;99.90
14053;DHT22;7101;51.600;7.310;2024-01-30T02:40:54;4.50;99.90
14053;DHT22;7101;51.600;7.310;2024-01-30T02:43:21;4.40;99.90
14053;DHT22;7101;51.600;7.310;2024-01-30T02:45:48;4.40;99.90
14053;DHT22;7101;51.600;7.310;2024-01-30T02:48:14;4.30;99.90
14053;DHT22;7101;51.600;7.310;2024-01-30T02:50:41;4.30;99.90
14053;DHT22;7101;51.600;7.310;2024-01-30T02:53:08;4.30;99.90
14053;DHT22;7101;51.600;7.310;2024-01-30T02:55:36;4.30;99.90
14053;DHT22;7101;51.600;7.310;2024-01-30T02:58:04;4.30;99.90
14053;DHT22;7101;51.600;7.310;2024-01-30T03:00:32;4.40;99.90
14053;DHT22;7101;51.600;7.310;2024-01-30T03:02:59;4.40;99.90
14053;DHT22;7101;51.600;7.310;2024-01-30T03:05:28;4.40;99.90
14053;DHT22;7101;51.600;7.310;2024-01-30T03:07:55;4.40;99.90
14053;DHT22;7101;51.600;7.310;2024-01-30T03:10:22;4.30;99.90
14053;DHT22;7101;51.600;7.310;2024-01-30T03:12:50;4.30;99.90
14053;DHT22;7101;51.600;7.310;2024-01-30T03:15:17;4.30;99.90
14053;DHT22;7101;51.600;7.310;2024-01-30T03:17:43;4.30;99.90
14053;DHT22;7101;51.600;7.310;2024-01-30T03:20:11;4.30;99.90
14053;DHT22;7101;51.600;7.310;2024-01-30T03:22:38;4.20;99.90
14053;DHT22;7101;51.600;7.310;2024-01-30T03:25:05;4.20;99.90
14053;DHT22;7101;51.600;7.310;2024-01-30T03:27:32;4.20;99.90
14053;DHT22;7101;51.600;7.310;2024-01-30T03:30:00;4.20;99.90
14053;DHT22;7101;51.600;7.310;2024-01-30T03:32:27;4.20;99.90
14053;DHT22;7101;51.600;7.310;2024-01-30T03:34:54;4.30;99.90
14053;DHT22;7101;51.600;7.310;2024-01-30T03:37:21;4.40;99.90
14053;DHT22;7101;51.600;7.310;2024-01-30T03:39:48;4.40;99.90
14053;DHT22;7101;51.600;7.310;2024-01-30T03:42:14;4.50;99.90
14053;DHT22;7101;51.600;7.310;2024-01-30T03:44:42;4.60;99.90
14053;DHT22;7101;51.600;7.310;2024-01-30T03:47:10;4.70;99.90
14053;DHT22;7101;51.600;7.310;2024-01-30T03:49:37;4.80;99.90
14053;DHT22;7101;51.600;7.310;2024-01-30T03:52:04;4.80;99.90
14053;DHT22;7101;51.600;7.310;2024-01-30T03:54:31;4.90;99.90
14053;DHT22;7101;51.600;7.310;2024-01-30T03:56:57;5.00;99.90
14053;DHT22;7101;51.600;7.310;2024-01-30T03:59:24;5.00;99.90
14053;DHT22;7101;51.600;7.310;2024-01-30T04:01:51;5.00;99.90
14053;DHT22;7101;51.600;7.310;2024-01-30T04:04:19;5.00;99.90
14053;DHT22;7101;51.600;7.310;2024-01-30T04:06:47;4.90;99.90
14053;DHT22;7101;51.600;7.310;2024-01-30T04:09:13;5.00;99.90
14053;DHT22;7101;51.600;7.310;2024-01-30T04:11:40;5.00;99.90
14053;DHT22;7101;51.600;7.310;2024-01-30T04:14:08;5.10;99.90
14053;DHT22;7101;51.600;7.310;2024-01-30T04:16:34;5.20;99.90
14053;DHT22;7101;51.600;7.310;2024-01-30T04:19:01;5.20;99.90
14053;DHT22;7101;51.600;7.310;2024-01-30T04:21:30;5.40;99.90
14053;DHT22;7101;51.600;7.310;2024-01-30T04:23:56;5.60;99.90
14053;DHT22;7101;51.600;7.310;2024-01-30T04:26:23;5.80;99.90
14053;DHT22;7101;51.600;7.310;2024-01-30T04:28:50;6.00;99.90
14053;DHT22;7101;51.600;7.310;2024-01-30T04:31:17;6.10;99.90
14053;DHT22;7101;51.600;7.310;2024-01-30T04:33:44;6.20;99.90
14053;DHT22;7101;51.600;7.310;2024-01-30T04:36:11;6.30;99.90
14053;DHT22;7101;51.600;7.310;2024-01-30T04:38:39;6.40;99.90
14053;DHT22;7101;51.600;7.310;2024-01-30T04:41:05;6.40;99.90
14053;DHT22;7101;51.600;7.310;2024-01-30T04:43:32;6.40;99.90
14053;DHT22;7101;51.600;7.310;2024-01-30T04:45:58;6.40;99.90
14053;DHT22;7101;51.600;7.310;2024-01-30T04:48:27;6.50;99.90
14053;DHT22;7101;51.600;7.310;2024-01-30T04:50:53;6.40;99.90
14053;DHT22;7101;51.600;7.310;2024-01-30T04:53:22;6.50;99.90
14053;DHT22;7101;51.600;7.310;2024-01-30T04:55:50;6.50;99.90
14053;DHT22;7101;51.600;7.310;2024-01-30T04:58:18;6.50;99.90
14053;DHT22;7101;51.600;7.310;2024-01-30T05:00:46;6.60;99.90
14053;DHT22;7101;51.600;7.310;2024-01-30T05:03:17;6.60;99.90
14053;DHT22;7101;51.600;7.310;2024-01-30T05:05:44;6.60;99.90
14053;DHT22;7101;51.600;7.310;2024-01-30T05:08:10;6.50;99.90
14053;DHT22;7101;51.600;7.310;2024-01-30T05:10:41;6.50;99.90
14053;DHT22;7101;51.600;7.310;2024-01-30T05:13:09;6.60;99.90
14053;DHT22;7101;51.600;7.310;2024-01-30T05:15:39;6.70;99.90
14053;DHT22;7101;51.600;7.310;2024-01-30T05:18:06;6.70;99.90
14053;DHT22;7101;51.600;7.310;2024-01-30T05:20:33;6.70;99.90
14053;DHT22;7101;51.600;7.310;2024-01-30T05:22:59;6.80;99.90
14053;DHT22;7101;51.600;7.310;2024-01-30T05:25:26;6.70;99.90
14053;DHT22;7101;51.600;7.310;2024-01-30T05:27:53;6.80;99.90
14053;DHT22;7101;51.600;7.310;2024-01-30T05:30:22;6.80;99.90
14053;DHT22;7101;51.600;7.310;2024-01-30T05:32:49;6.80;99.90
14053;DHT22;7101;51.600;7.310;2024-01-30T05:35:16;6.80;99.90
14053;DHT22;7101;51.600;7.310;2024-01-30T05:37:42;6.90;99.90
14053;DHT22;7101;51.600;7.310;2024-01-30T05:40:10;6.90;99.00
14053;DHT22;7101;51.600;7.310;2024-01-30T05:42:37;6.90;81.40
14053;DHT22;7101;51.600;7.310;2024-01-30T05:45:05;6.90;67.80
14053;DHT22;7101;51.600;7.310;2024-01-30T05:47:33;6.90;37.10
14053;DHT22;7101;51.600;7.310;2024-01-30T05:50:00;6.80;3.00
14053;DHT22;7101;51.600;7.310;2024-01-30T05:52:27;6.90;1.00
14053;DHT22;7101;51.600;7.310;2024-01-30T05:54:53;6.90;1.00
14053;DHT22;7101;51.600;7.310;2024-01-30T05:57:20;6.90;1.00
14053;DHT22;7101;51.600;7.310;2024-01-30T05:59:47;6.90;1.00
14053;DHT22;7101;51.600;7.310;2024-01-30T06:02:14;6.90;1.00
14053;DHT22;7101;51.600;7.310;2024-01-30T06:04:42;6.80;1.00
14053;DHT22;7101;51.600;7.310;2024-01-30T06:07:10;6.80;1.00
14053;DHT22;7101;51.600;7.310;2024-01-30T06:09:40;6.80;1.00
14053;DHT22;7101;51.600;7.310;2024-01-30T06:12:07;6.80;1.00
14053;DHT22;7101;51.600;7.310;2024-01-30T06:14:34;6.80;1.00
14053;DHT22;7101;51.600;7.310;2024-01-30T06:17:01;6.80;1.00
14053;DHT22;7101;51.600;7.310;2024-01-30T06:19:28;6.70;1.00
14053;DHT22;7101;51.600;7.310;2024-01-30T06:21:56;6.80;1.00
14053;DHT22;7101;51.600;7.310;2024-01-30T06:24:22;6.80;1.00
14053;DHT22;7101;51.600;7.310;2024-01-30T06:26:49;6.70;1.00
14053;DHT22;7101;51.600;7.310;2024-01-30T06:29:17;6.70;1.00
14053;DHT22;7101;51.600;7.310;2024-01-30T06:31:44;6.70;1.00
14053;DHT22;7101;51.600;7.310;2024-01-30T06:34:11;6.70;1.00
14053;DHT22;7101;51.600;7.310;2024-01-30T06:36:38;6.80;1.00
14053;DHT22;7101;51.600;7.310;2024-01-30T06:39:06;6.90;1.00
14053;DHT22;7101;51.600;7.310;2024-01-30T06:41:34;6.90;1.00
14053;DHT22;7101;51.600;7.310;2024-01-30T06:44:02;6.90;1.00
14053;DHT22;7101;51.600;7.310;2024-01-30T06:46:29;7.00;1.00
14053;DHT22;7101;51.600;7.310;2024-01-30T06:48:56;7.10;1.00
14053;DHT22;7101;51.600;7.310;2024-01-30T06:51:23;7.10;1.00
14053;DHT22;7101;51.600;7.310;2024-01-30T06:53:50;7.20;1.00
14053;DHT22;7101;51.600;7.310;2024-01-30T06:56:18;7.20;1.00
14053;DHT22;7101;51.600;7.310;2024-01-30T06:58:46;7.20;1.00
14053;DHT22;7101;51.600;7.310;2024-01-30T07:01:14;7.20;1.00
14053;DHT22;7101;51.600;7.310;2024-01-30T07:03:41;7.20;1.00
14053;DHT22;7101;51.600;7.310;2024-01-30T07:06:10;7.30;1.00
14053;DHT22;7101;51.600;7.310;2024-01-30T07:08:37;7.30;1.00
14053;DHT22;7101;51.600;7.310;2024-01-30T07:11:04;7.40;1.00
14053;DHT22;7101;51.600;7.310;2024-01-30T07:13:33;7.40;1.00
14053;DHT22;7101;51.600;7.310;2024-01-30T07:16:02;7.30;1.00
14053;DHT22;7101;51.600;7.310;2024-01-30T07:18:29;7.30;1.00
14053;DHT22;7101;51.600;7.310;2024-01-30T07:20:57;7.30;1.00
14053;DHT22;7101;51.600;7.310;2024-01-30T07:23:23;7.30;1.00
14053;DHT22;7101;51.600;7.310;2024-01-30T07:25:50;7.20;1.00
14053;DHT22;7101;51.600;7.310;2024-01-30T07:28:17;7.20;1.00
14053;DHT22;7101;51.600;7.310;2024-01-30T07:30:45;7.20;1.00
14053;DHT22;7101;51.600;7.310;2024-01-30T07:33:13;7.30;1.00
14053;DHT22;7101;51.600;7.310;2024-01-30T07:35:40;7.40;1.00
14053;DHT22;7101;51.600;7.310;2024-01-30T07:38:07;7.50;1.00
14053;DHT22;7101;51.600;7.310;2024-01-30T07:40:34;7.60;1.00
14053;DHT22;7101;51.600;7.310;2024-01-30T07:43:01;7.70;1.00
14053;DHT22;7101;51.600;7.310;2024-01-30T07:45:28;7.80;1.00
14053;DHT22;7101;51.600;7.310;2024-01-30T07:47:59;7.90;1.00
14053;DHT22;7101;51.600;7.310;2024-01-30T07:50:26;8.00;99.90
14053;DHT22;7101;51.600;7.310;2024-01-30T07:52:53;8.10;99.90
14053;DHT22;7101;51.600;7.310;2024-01-30T07:55:20;8.20;99.90
14053;DHT22;7101;51.600;7.310;2024-01-30T07:57:50;8.30;99.90
14053;DHT22;7101;51.600;7.310;2024-01-30T08:00:17;8.30;99.90
14053;DHT22;7101;51.600;7.310;2024-01-30T08:02:45;8.30;43.50
14053;DHT22;7101;51.600;7.310;2024-01-30T08:05:13;8.40;5.50
14053;DHT22;7101;51.600;7.310;2024-01-30T08:07:40;8.40;1.00
14053;DHT22;7101;51.600;7.310;2024-01-30T08:10:08;8.40;1.00
14053;DHT22;7101;51.600;7.310;2024-01-30T08:12:35;8.50;1.00
14053;DHT22;7101;51.600;7.310;2024-01-30T08:15:04;8.50;1.00
14053;DHT22;7101;51.600;7.310;2024-01-30T08:17:31;8.60;1.00
14053;DHT22;7101;51.600;7.310;2024-01-30T08:19:58;8.60;1.00
14053;DHT22;7101;51.600;7.310;2024-01-30T08:22:26;8.70;1.00
14053;DHT22;7101;51.600;7.310;2024-01-30T08:24:53;8.70;1.00
14053;DHT22;7101;51.600;7.310;2024-01-30T08:27:19;8.80;1.00
14053;DHT22;7101;51.600;7.310;2024-01-30T08:29:46;8.90;99.90
14053;DHT22;7101;51.600;7.310;2024-01-30T08:32:13;9.00;99.90
14053;DHT22;7101;51.600;7.310;2024-01-30T08:34:42;9.00;99.90
14053;DHT22;7101;51.600;7.310;2024-01-30T08:37:09;9.10;99.90
14053;DHT22;7101;51.600;7.310;2024-01-30T08:39:38;9.10;99.90
14053;DHT22;7101;51.600;7.310;2024-01-30T08:42:05;9.20;93.70
14053;DHT22;7101;51.600;7.310;2024-01-30T08:44:33;9.20;15.30
14053;DHT22;7101;51.600;7.310;2024-01-30T08:47:00;9.30;1.00
14053;DHT22;7101;51.600;7.310;2024-01-30T08:49:28;9.40;1.00
14053;DHT22;7101;51.600;7.310;2024-01-30T08:51:54;9.50;1.00
14053;DHT22;7101;51.600;7.310;2024-01-30T08:54:21;9.50;1.00
14053;DHT22;7101;51.600;7.310;2024-01-30T08:56:49;9.60;1.00
14053;DHT22;7101;51.600;7.310;2024-01-30T08:59:18;9.60;1.00
14053;DHT22;7101;51.600;7.310;2024-01-30T09:01:44;9.60;1.00
14053;DHT22;7101;51.600;7.310;2024-01-30T09:04:12;9.60;1.00
14053;DHT22;7101;51.600;7.310;2024-01-30T09:06:42;9.60;1.00
14053;DHT22;7101;51.600;7.310;2024-01-30T09:09:09;9.80;1.00
14053;DHT22;7101;51.600;7.310;2024-01-30T09:11:35;9.70;1.00
14053;DHT22;7101;51.600;7.310;2024-01-30T09:14:03;9.70;1.00
14053;DHT22;7101;51.600;7.310;2024-01-30T09:16:30;9.70;1.00
14053;DHT22;7101;51.600;7.310;2024-01-30T09:18:57;9.70;1.00
14053;DHT22;7101;51.600;7.310;2024-01-30T09:21:24;9.80;1.00
14053;DHT22;7101;51.600;7.310;2024-01-30T09:23:54;9.90;1.00
14053;DHT22;7101;51.600;7.310;2024-01-30T09:26:21;9.90;1.00
14053;DHT22;7101;51.600;7.310;2024-01-30T09:28:48;10.00;1.00
14053;DHT22;7101;51.600;7.310;2024-01-30T09:31:16;10.10;1.00
14053;DHT22;7101;51.600;7.310;2024-01-30T09:33:43;10.10;1.00
14053;DHT22;7101;51.600;7.310;2024-01-30T09:36:12;10.20;1.00
14053;DHT22;7101;51.600;7.310;2024-01-30T09:38:40;10.20;1.00
14053;DHT22;7101;51.600;7.310;2024-01-30T09:41:09;10.30;1.00
14053;DHT22;7101;51.600;7.310;2024-01-30T09:43:38;10.30;1.00
14053;DHT22;7101;51.600;7.310;2024-01-30T09:46:05;10.20;1.00
14053;DHT22;7101;51.600;7.310;2024-01-30T09:48:36;10.20;1.00
14053;DHT22;7101;51.600;7.310;2024-01-30T09:51:03;10.20;1.00
14053;DHT22;7101;51.600;7.310;2024-01-30T09:53:31;10.20;1.00
14053;DHT22;7101;51.600;7.310;2024-01-30T09:55:58;10.20;1.00
14053;DHT22;7101;51.600;7.310;2024-01-30T09:58:25;10.40;1.00
14053;DHT22;7101;51.600;7.310;2024-01-30T10:00:51;10.50;1.00
14053;DHT22;7101;51.600;7.310;2024-01-30T10:03:19;10.70;1.00
14053;DHT22;7101;51.600;7.310;2024-01-30T10:05:51;10.70;1.00
14053;DHT22;7101;51.600;7.310;2024-01-30T10:08:18;10.80;99.90
14053;DHT22;7101;51.600;7.310;2024-01-30T10:10:46;11.00;99.90
14053;DHT22;7101;51.600;7.310;2024-01-30T10:13:13;11.10;99.90
14053;DHT22;7101;51.600;7.310;2024-01-30T10:15:40;11.20;99.90
14053;DHT22;7101;51.600;7.310;2024-01-30T10:18:08;11.40;49.40
14053;DHT22;7101;51.600;7.310;2024-01-30T10:20:35;11.50;1.00
14053;DHT22;7101;51.600;7.310;2024-01-30T10:23:04;11.50;1.00
14053;DHT22;7101;51.600;7.310;2024-01-30T10:25:31;11.70;1.00
14053;DHT22;7101;51.600;7.310;2024-01-30T10:27:59;11.80;99.90
14053;DHT22;7101;51.600;7.310;2024-01-30T10:30:27;11.80;99.90
14053;DHT22;7101;51.600;7.310;2024-01-30T10:32:54;12.00;99.90
14053;DHT22;7101;51.600;7.310;2024-01-30T10:35:21;12.10;1.00
14053;DHT22;7101;51.600;7.310;2024-01-30T10:37:48;12.20;1.00
14053;DHT22;7101;51.600;7.310;2024-01-30T10:40:16;12.40;1.00
14053;DHT22;7101;51.600;7.310;2024-01-30T10:42:44;12.30;1.00
14053;DHT22;7101;51.600;7.310;2024-01-30T10:45:12;12.20;1.00
14053;DHT22;7101;51.600;7.310;2024-01-30T10:47:40;12.20;1.00
14053;DHT22;7101;51.600;7.310;2024-01-30T10:50:08;12.30;1.00
14053;DHT22;7101;51.600;7.310;2024-01-30T10:52:36;12.30;99.90
14053;DHT22;7101;51.600;7.310;2024-01-30T10:55:04;12.40;99.90
14053;DHT22;7101;51.600;7.310;2024-01-30T10:57:34;12.50;99.90
14053;DHT22;7101;51.600;7.310;2024-01-30T11:00:04;12.50;99.90
14053;DHT22;7101;51.600;7.310;2024-01-30T11:02:36;12.50;99.90
14053;DHT22;7101;51.600;7.310;2024-01-30T11:05:05;12.60;99.90
14053;DHT22;7101;51.600;7.310;2024-01-30T11:07:32;12.80;1.00
14053;DHT22;7101;51.600;7.310;2024-01-30T11:10:03;12.90;1.00
14053;DHT22;7101;51.600;7.310;2024-01-30T11:12:31;13.00;99.90
14053;DHT22;7101;51.600;7.310;2024-01-30T11:15:08;13.10;1.00
14053;DHT22;7101;51.600;7.310;2024-01-30T11:17:45;13.10;99.90
14053;DHT22;7101;51.600;7.310;2024-01-30T11:20:19;13.00;99.90
14053;DHT22;7101;51.600;7.310;2024-01-30T11:22:47;13.00;1.00
14053;DHT22;7101;51.600;7.310;2024-01-30T11:25:14;12.90;1.00
14053;DHT22;7101;51.600;7.310;2024-01-30T11:27:43;12.90;99.90
14053;DHT22;7101;51.600;7.310;2024-01-30T11:30:21;13.00;1.00
14053;DHT22;7101;51.600;7.310;2024-01-30T11:32:58;13.00;1.00
14053;DHT22;7101;51.600;7.310;2024-01-30T11:35:25;13.10;1.00
14053;DHT22;7101;51.600;7.310;2024-01-30T11:37:52;13.10;99.90
14053;DHT22;7101;51.600;7.310;2024-01-30T11:40:21;13.00;1.00
14053;DHT22;7101;51.600;7.310;2024-01-30T11:42:48;13.00;1.00
14053;DHT22;7101;51.600;7.310;2024-01-30T11:45:17;13.00;1.00
14053;DHT22;7101;51.600;7.310;2024-01-30T11:47:44;13.10;1.00
14053;DHT22;7101;51.600;7.310;2024-01-30T11:50:11;13.00;1.00
14053;DHT22;7101;51.600;7.310;2024-01-30T11:52:38;13.00;99.90
14053;DHT22;7101;51.600;7.310;2024-01-30T11:55:05;12.80;99.90
14053;DHT22;7101;51.600;7.310;2024-01-30T11:57:33;12.80;99.90
14053;DHT22;7101;51.600;7.310;2024-01-30T12:00:00;12.80;99.90
14053;DHT22;7101;51.600;7.310;2024-01-30T12:02:28;12.90;99.90
14053;DHT22;7101;51.600;7.310;2024-01-30T12:04:55;12.90;99.90
14053;DHT22;7101;51.600;7.310;2024-01-30T12:07:22;12.90;99.90
14053;DHT22;7101;51.600;7.310;2024-01-30T12:09:52;12.90;99.90
14053;DHT22;7101;51.600;7.310;2024-01-30T12:12:21;13.00;99.90
14053;DHT22;7101;51.600;7.310;2024-01-30T12:14:49;12.90;99.90
14053;DHT22;7101;51.600;7.310;2024-01-30T12:17:23;12.80;99.90
14053;DHT22;7101;51.600;7.310;2024-01-30T12:20:02;12.80;99.90
14053;DHT22;7101;51.600;7.310;2024-01-30T12:22:33;12.90;99.90
14053;DHT22;7101;51.600;7.310;2024-01-30T12:25:00;12.80;1.00
14053;DHT22;7101;51.600;7.310;2024-01-30T12:27:27;12.80;1.00
14053;DHT22;7101;51.600;7.310;2024-01-30T12:29:57;12.60;1.00
14053;DHT22;7101;51.600;7.310;2024-01-30T12:32:24;12.50;1.00
14053;DHT22;7101;51.600;7.310;2024-01-30T12:34:54;12.40;29.80
14053;DHT22;7101;51.600;7.310;2024-01-30T12:37:21;12.40;99.90
14053;DHT22;7101;51.600;7.310;2024-01-30T12:39:51;12.40;99.90
14053;DHT22;7101;51.600;7.310;2024-01-30T12:42:22;12.40;99.90
14053;DHT22;7101;51.600;7.310;2024-01-30T12:44:57;12.40;99.90
14053;DHT22;7101;51.600;7.310;2024-01-30T12:47:24;12.50;99.90
14053;DHT22;7101;51.600;7.310;2024-01-30T12:49:53;12.50;99.90
14053;DHT22;7101;51.600;7.310;2024-01-30T12:52:20;12.60;99.90
14053;DHT22;7101;51.600;7.310;2024-01-30T12:54:47;12.60;99.90
14053;DHT22;7101;51.600;7.310;2024-01-30T12:57:14;12.50;99.90
14053;DHT22;7101;51.600;7.310;2024-01-30T12:59:42;12.40;1.00
14053;DHT22;7101;51.600;7.310;2024-01-30T13:02:09;12.40;1.00
14053;DHT22;7101;51.600;7.310;2024-01-30T13:04:36;12.50;99.90
14053;DHT22;7101;51.600;7.310;2024-01-30T13:07:04;12.40;1.00
14053;DHT22;7101;51.600;7.310;2024-01-30T13:09:31;12.40;1.00
14053;DHT22;7101;51.600;7.310;2024-01-30T13:11:58;12.40;1.00
14053;DHT22;7101;51.600;7.310;2024-01-30T13:14:25;12.40;1.00
14053;DHT22;7101;51.600;7.310;2024-01-30T13:16:52;12.30;1.00
14053;DHT22;7101;51.600;7.310;2024-01-30T13:19:19;12.20;1.00
14053;DHT22;7101;51.600;7.310;2024-01-30T13:21:46;12.20;35.60
14053;DHT22;7101;51.600;7.310;2024-01-30T13:24:14;12.20;1.00
14053;DHT22;7101;51.600;7.310;2024-01-30T13:26:42;12.20;71.70
14053;DHT22;7101;51.600;7.310;2024-01-30T13:29:09;12.20;1.00
14053;DHT22;7101;51.600;7.310;2024-01-30T13:31:36;12.10;99.90
14053;DHT22;7101;51.600;7.310;2024-01-30T13:34:03;12.10;29.10
14053;DHT22;7101;51.600;7.310;2024-01-30T13:36:30;12.20;1.00
14053;DHT22;7101;51.600;7.310;2024-01-30T13:38:58;12.20;28.60
14053;DHT22;7101;51.600;7.310;2024-01-30T13:41:29;12.10;5.60
14053;DHT22;7101;51.600;7.310;2024-01-30T13:43:56;12.10;28.00
14053;DHT22;7101;51.600;7.310;2024-01-30T13:46:23;12.00;99.90
14053;DHT22;7101;51.600;7.310;2024-01-30T13:48:50;12.10;99.90
14053;DHT22;7101;51.600;7.310;2024-01-30T13:51:17;12.00;99.90
14053;DHT22;7101;51.600;7.310;2024-01-30T13:53:44;12.00;99.90
14053;DHT22;7101;51.600;7.310;2024-01-30T13:56:11;12.00;99.90
14053;DHT22;7101;51.600;7.310;2024-01-30T13:58:39;11.90;99.90
14053;DHT22;7101;51.600;7.310;2024-01-30T14:01:05;11.90;99.90
14053;DHT22;7101;51.600;7.310;2024-01-30T14:03:32;11.80;1.00
14053;DHT22;7101;51.600;7.310;2024-01-30T14:05:59;11.80;1.00
14053;DHT22;7101;51.600;7.310;2024-01-30T14:08:26;11.90;99.90
14053;DHT22;7101;51.600;7.310;2024-01-30T14:10:53;11.90;99.90
14053;DHT22;7101;51.600;7.310;2024-01-30T14:13:21;11.90;1.00
14053;DHT22;7101;51.600;7.310;2024-01-30T14:15:49;11.90;99.90
14053;DHT22;7101;51.600;7.310;2024-01-30T14:18:16;11.90;99.90
14053;DHT22;7101;51.600;7.310;2024-01-30T14:20:43;11.80;99.90
14053;DHT22;7101;51.600;7.310;2024-01-30T14:23:10;11.80;99.90
14053;DHT22;7101;51.600;7.310;2024-01-30T14:25:37;11.80;99.90
14053;DHT22;7101;51.600;7.310;2024-01-30T14:28:04;11.80;99.90
14053;DHT22;7101;51.600;7.310;2024-01-30T14:30:31;11.80;1.00
14053;DHT22;7101;51.600;7.310;2024-01-30T14:32:59;11.70;1.00
14053;DHT22;7101;51.600;7.310;2024-01-30T14:35:26;11.70;1.00
14053;DHT22;7101;51.600;7.310;2024-01-30T14:37:53;11.80;1.00
14053;DHT22;7101;51.600;7.310;2024-01-30T14:40:19;11.80;1.00
14053;DHT22;7101;51.600;7.310;2024-01-30T14:42:46;11.90;1.00
14053;DHT22;7101;51.600;7.310;2024-01-30T14:45:13;11.90;1.00
14053;DHT22;7101;51.600;7.310;2024-01-30T14:47:40;11.90;99.90
14053;DHT22;7101;51.600;7.310;2024-01-30T14:50:08;12.00;99.90
14053;DHT22;7101;51.600;7.310;2024-01-30T14:52:36;12.00;99.90
14053;DHT22;7101;51.600;7.310;2024-01-30T14:55:03;12.00;99.90
14053;DHT22;7101;51.600;7.310;2024-01-30T14:57:30;12.00;99.90
14053;DHT22;7101;51.600;7.310;2024-01-30T14:59:57;12.00;99.90
14053;DHT22;7101;51.600;7.310;2024-01-30T15:02:24;11.90;99.90
14053;DHT22;7101;51.600;7.310;2024-01-30T15:04:50;11.90;99.90
14053;DHT22;7101;51.600;7.310;2024-01-30T15:07:19;11.80;99.90
14053;DHT22;7101;51.600;7.310;2024-01-30T15:09:45;11.80;99.90
14053;DHT22;7101;51.600;7.310;2024-01-30T15:12:12;11.80;99.90
14053;DHT22;7101;51.600;7.310;2024-01-30T15:14:39;11.80;99.90
14053;DHT22;7101;51.600;7.310;2024-01-30T15:17:06;11.70;1.00
14053;DHT22;7101;51.600;7.310;2024-01-30T15:19:32;11.70;99.90
14053;DHT22;7101;51.600;7.310;2024-01-30T15:21:59;11.70;99.90
14053;DHT22;7101;51.600;7.310;2024-01-30T15:24:27;11.70;99.90
14053;DHT22;7101;51.600;7.310;2024-01-30T15:26:54;11.70;99.90
14053;DHT22;7101;51.600;7.310;2024-01-30T15:29:22;11.70;99.90
14053;DHT22;7101;51.600;7.310;2024-01-30T15:31:49;11.60;99.90
14053;DHT22;7101;51.600;7.310;2024-01-30T15:34:16;11.50;1.00
14053;DHT22;7101;51.600;7.310;2024-01-30T15:36:43;11.40;1.00
14053;DHT22;7101;51.600;7.310;2024-01-30T15:39:10;11.30;1.00
14053;DHT22;7101;51.600;7.310;2024-01-30T15:41:38;11.20;1.00
14053;DHT22;7101;51.600;7.310;2024-01-30T15:44:05;11.20;1.00
14053;DHT22;7101;51.600;7.310;2024-01-30T15:46:32;11.10;1.00
14053;DHT22;7101;51.600;7.310;2024-01-30T15:48:59;11.10;1.00
14053;DHT22;7101;51.600;7.310;2024-01-30T15:51:26;11.00;1.00
14053;DHT22;7101;51.600;7.310;2024-01-30T15:53:53;11.00;1.00
14053;DHT22;7101;51.600;7.310;2024-01-30T15:56:20;10.90;1.00
14053;DHT22;7101;51.600;7.310;2024-01-30T15:58:48;10.80;1.00
14053;DHT22;7101;51.600;7.310;2024-01-30T16:01:17;10.80;1.00
14053;DHT22;7101;51.600;7.310;2024-01-30T16:03:44;10.80;1.00